Time;durP1;ratioP1;P1;durP2;ratioP2;P2;SDS_P1;SDS_P2;PMS_P1;PMS_P2;Temp;Humidity;BMP_temperature;BMP_pressure;BME280_temperature;BME280_humidity;BME280_pressure;Samples;Min_cycle;Max_cycle;Signal;HPM_P1;HPM_P2
2022/03/26 00:00:33;;;;;;;35.22;17.08;;;;;;;6.42;82.87;103245.75;4978063;28;20117;-84
2022/03/26 00:02:58;;;;;;;40.13;17.25;;;;;;;6.42;83.31;103244.84;5007313;28;20038;-86
2022/03/26 00:05:24;;;;;;;35.00;16.77;;;;;;;6.39;83.19;103241.34;4982657;28;20064;-85
2022/03/26 00:07:49;;;;;;;34.38;16.42;;;;;;;6.35;82.73;103236.00;4997793;28;20058;-83
2022/03/26 00:10:15;;;;;;;35.72;17.77;;;;;;;6.31;83.02;103243.00;5005641;28;20084;-84
2022/03/26 00:12:41;;;;;;;34.80;16.45;;;;;;;6.26;82.83;103254.34;4963663;28;20030;-85
2022/03/26 00:15:10;;;;;;;32.90;16.83;;;;;;;6.17;83.43;103244.56;4986311;28;20039;-83
2022/03/26 00:17:36;;;;;;;32.20;17.10;;;;;;;6.10;83.98;103240.09;4976930;28;20117;-84
2022/03/26 00:20:03;;;;;;;33.88;17.05;;;;;;;6.08;84.51;103245.34;4987665;28;20122;-86
2022/03/26 00:22:28;;;;;;;37.40;16.92;;;;;;;6.06;84.52;103245.31;4992449;28;20118;-86
2022/03/26 00:24:53;;;;;;;34.35;16.77;;;;;;;6.01;85.05;103246.13;4967098;28;20046;-86
2022/03/26 00:27:19;;;;;;;31.40;17.10;;;;;;;6.01;85.12;103241.75;4972439;28;20110;-86
2022/03/26 00:29:44;;;;;;;35.75;16.70;;;;;;;6.01;85.04;103248.75;4973188;28;20084;-86
2022/03/26 00:32:10;;;;;;;35.25;17.63;;;;;;;6.00;85.39;103239.13;4972994;28;20034;-86
2022/03/26 00:34:36;;;;;;;32.92;17.05;;;;;;;6.02;86.11;103245.25;4970247;28;20034;-87
2022/03/26 00:37:01;;;;;;;36.70;17.02;;;;;;;6.04;85.03;103240.91;4992989;28;20104;-85
2022/03/26 00:39:27;;;;;;;36.58;16.92;;;;;;;6.00;83.97;103247.00;4990380;28;20729;-86
2022/03/26 00:41:53;;;;;;;32.70;17.70;;;;;;;5.94;84.20;103242.50;4975217;28;20030;-87
2022/03/26 00:44:20;;;;;;;33.72;17.35;;;;;;;5.88;84.58;103243.31;4998662;28;20022;-85
2022/03/26 00:46:46;;;;;;;35.85;17.00;;;;;;;5.83;84.98;103246.72;4972007;28;20030;-86
2022/03/26 00:49:17;;;;;;;35.70;16.40;;;;;;;5.79;85.69;103244.91;4989809;28;20113;-86
2022/03/26 00:51:43;;;;;;;32.47;16.60;;;;;;;5.77;86.10;103251.88;4989143;28;20030;-86
2022/03/26 00:54:09;;;;;;;33.42;17.25;;;;;;;5.69;86.57;103262.28;4987299;28;20311;-86
2022/03/26 00:56:39;;;;;;;35.08;16.73;;;;;;;5.63;87.40;103262.22;4992922;28;20049;-86
2022/03/26 00:59:05;;;;;;;39.05;17.98;;;;;;;5.57;88.29;103263.88;4990732;28;20033;-86
2022/03/26 01:01:32;;;;;;;34.80;16.67;;;;;;;5.57;88.03;103263.88;4990911;28;20030;-86
2022/03/26 01:04:00;;;;;;;36.35;17.05;;;;;;;5.59;87.33;103266.56;4984516;28;20027;-86
2022/03/26 01:06:26;;;;;;;37.47;18.45;;;;;;;5.58;87.68;103265.66;4972770;28;20058;-86
2022/03/26 01:08:52;;;;;;;36.35;18.48;;;;;;;5.63;86.74;103268.38;4989591;28;20062;-86
2022/03/26 01:11:18;;;;;;;36.53;18.25;;;;;;;5.67;86.73;103261.41;4987506;28;20490;-85
2022/03/26 01:13:44;;;;;;;35.40;17.52;;;;;;;5.67;86.49;103266.66;5006631;28;20038;-85
2022/03/26 01:16:09;;;;;;;39.78;18.00;;;;;;;5.64;87.03;103261.34;4995251;28;20113;-84
2022/03/26 01:18:35;;;;;;;39.45;19.02;;;;;;;5.57;86.47;103263.88;4985623;28;20041;-85
2022/03/26 01:21:00;;;;;;;41.58;19.48;;;;;;;5.52;87.38;103260.28;4989859;28;20117;-85
2022/03/26 01:23:26;;;;;;;39.55;19.40;;;;;;;5.51;87.27;103265.53;4972387;28;20129;-85
2022/03/26 01:25:51;;;;;;;38.17;19.30;;;;;;;5.51;87.16;103255.94;4968582;28;20027;-85
2022/03/26 01:28:18;;;;;;;37.90;18.73;;;;;;;5.47;87.56;103253.22;5004825;28;20034;-85
2022/03/26 01:30:45;;;;;;;41.72;19.45;;;;;;;5.43;87.82;103247.03;4984028;28;20498;-85
2022/03/26 01:33:10;;;;;;;41.38;19.20;;;;;;;5.40;87.77;103254.88;4975656;28;20470;-86
2022/03/26 01:35:36;;;;;;;46.15;20.38;;;;;;;5.37;88.57;103244.28;5002100;28;20061;-84
2022/03/26 01:38:04;;;;;;;39.30;19.60;;;;;;;5.34;87.89;103253.00;4968678;28;20030;-85
2022/03/26 01:40:30;;;;;;;38.80;18.58;;;;;;;5.29;87.97;103253.81;4990664;28;20497;-85
2022/03/26 01:42:56;;;;;;;39.53;18.90;;;;;;;5.25;88.53;103255.50;4991362;28;20026;-85
2022/03/26 01:45:21;;;;;;;38.80;20.23;;;;;;;5.22;89.32;103248.44;4989462;28;20137;-85
2022/03/26 01:47:46;;;;;;;44.05;20.45;;;;;;;5.19;89.49;103247.50;4989641;28;20038;-86
2022/03/26 01:50:12;;;;;;;42.78;20.50;;;;;;;5.18;88.88;103246.66;5006150;28;20063;-85
2022/03/26 01:52:37;;;;;;;44.72;19.20;;;;;;;5.20;88.81;103249.28;4974218;28;20180;-85
2022/03/26 01:55:04;;;;;;;39.95;19.45;;;;;;;5.21;88.72;103258.94;4963447;28;20038;-86
2022/03/26 01:57:30;;;;;;;40.28;20.48;;;;;;;5.20;88.90;103247.53;4991505;28;20041;-86
2022/03/26 01:59:55;;;;;;;39.45;19.70;;;;;;;5.18;88.39;103248.38;4969896;28;20128;-86
2022/03/26 02:02:22;;;;;;;39.42;19.45;;;;;;;5.20;88.44;103244.03;4972540;28;20160;-85
2022/03/26 02:04:47;;;;;;;41.28;20.42;;;;;;;5.17;88.53;103242.25;5006409;28;20037;-85
2022/03/26 02:07:13;;;;;;;41.33;20.27;;;;;;;5.15;89.80;103229.94;4972030;28;20030;-86
2022/03/26 02:09:38;;;;;;;39.88;19.85;;;;;;;5.14;88.92;103236.94;4972209;28;20061;-85
2022/03/26 02:12:21;;;;;;;42.58;20.30;;;;;;;5.09;89.31;103236.00;5005584;28;20168;-86
2022/03/26 02:14:47;;;;;;;42.00;20.80;;;;;;;5.06;89.19;103228.03;4972325;28;20129;-84
2022/03/26 02:17:12;;;;;;;40.58;20.67;;;;;;;5.03;89.84;103228.00;4989782;28;20105;-86
2022/03/26 02:19:38;;;;;;;44.00;19.38;;;;;;;5.02;90.36;103234.97;4987460;28;20041;-85
2022/03/26 02:22:04;;;;;;;44.92;20.88;;;;;;;5.00;90.65;103233.19;4966979;28;20039;-85
2022/03/26 02:24:29;;;;;;;43.05;20.92;;;;;;;4.98;90.66;103229.66;4988486;28;20132;-85
2022/03/26 02:26:55;;;;;;;41.50;20.27;;;;;;;4.96;90.75;103232.25;4961608;28;20573;-85
2022/03/26 02:29:20;;;;;;;45.85;21.23;;;;;;;4.97;90.22;103227.91;4974488;28;20034;-85
2022/03/26 02:31:46;;;;;;;40.85;20.02;;;;;;;4.96;90.46;103215.63;4985501;28;20394;-85
2022/03/26 02:34:11;;;;;;;46.63;20.50;;;;;;;4.96;90.40;103234.00;4970950;28;20034;-85
2022/03/26 02:36:37;;;;;;;41.90;19.92;;;;;;;4.91;91.05;103229.56;4972955;28;20061;-85
2022/03/26 02:39:05;;;;;;;46.70;20.08;;;;;;;4.88;91.67;103228.63;4954667;28;20108;-85
2022/03/26 02:41:31;;;;;;;42.60;21.05;;;;;;;4.85;91.72;103223.31;4976229;28;20037;-85
2022/03/26 02:43:57;;;;;;;40.35;20.45;;;;;;;4.82;92.12;103223.25;4988960;28;20030;-85
2022/03/26 02:46:22;;;;;;;44.20;20.15;;;;;;;4.81;92.20;103226.72;4970706;28;20096;-84
2022/03/26 02:49:07;;;;;;;41.03;20.55;;;;;;;4.81;92.40;103227.63;4949465;28;20405;-85
2022/03/26 02:51:32;;;;;;;39.08;19.20;;;;;;;4.76;92.15;103230.16;4962847;28;20041;-85
2022/03/26 02:53:57;;;;;;;46.97;20.95;;;;;;;4.73;92.60;103227.50;4986611;28;20681;-85
2022/03/26 02:56:23;;;;;;;50.15;21.42;;;;;;;4.72;92.74;103225.72;4970248;28;20474;-86
2022/03/26 02:58:49;;;;;;;46.70;21.70;;;;;;;4.73;92.70;103230.13;4972279;28;20531;-85
2022/03/26 03:01:14;;;;;;;45.10;21.48;;;;;;;4.72;92.19;103230.97;5003157;28;20033;-85
2022/03/26 03:03:40;;;;;;;47.75;21.95;;;;;;;4.72;92.18;103228.34;5004522;28;20034;-85
2022/03/26 03:06:06;;;;;;;46.95;21.98;;;;;;;4.71;92.17;103220.47;4981750;28;20545;-85
2022/03/26 03:08:31;;;;;;;46.83;20.63;;;;;;;4.72;92.97;103224.84;4972451;28;20521;-85
2022/03/26 03:10:56;;;;;;;42.97;19.85;;;;;;;4.74;92.60;103228.38;4997760;28;20445;-85
2022/03/26 03:13:22;;;;;;;47.72;21.17;;;;;;;4.75;92.23;103220.50;4953404;28;20134;-85
2022/03/26 03:15:51;;;;;;;42.38;20.60;;;;;;;4.76;92.29;103226.66;4954684;28;20032;-85
2022/03/26 03:18:19;;;;;;;40.00;19.98;;;;;;;4.74;92.46;103223.13;4986948;28;20030;-85
2022/03/26 03:20:45;;;;;;;46.35;20.92;;;;;;;4.69;92.66;103223.06;4986797;28;20081;-86
2022/03/26 03:23:13;;;;;;;52.00;21.40;;;;;;;4.67;93.37;103227.38;5000495;28;20038;-85
2022/03/26 03:25:39;;;;;;;45.53;20.95;;;;;;;4.68;93.24;103221.28;4983824;28;20433;-85
2022/03/26 03:28:04;;;;;;;47.28;20.85;;;;;;;4.68;93.27;103229.16;4985553;28;20041;-85
2022/03/26 03:30:30;;;;;;;48.50;21.67;;;;;;;4.69;93.34;103227.41;4972042;28;20027;-86
2022/03/26 03:32:56;;;;;;;44.47;21.50;;;;;;;4.67;92.98;103229.13;4985862;28;20118;-85
2022/03/26 03:35:22;;;;;;;48.47;21.80;;;;;;;4.64;94.26;103222.06;4970503;28;20050;-85
2022/03/26 03:37:48;;;;;;;45.13;21.58;;;;;;;4.63;93.90;103225.56;4952028;28;20036;-85
2022/03/26 03:40:13;;;;;;;51.42;22.85;;;;;;;4.62;94.03;103234.28;4982633;28;20030;-86
2022/03/26 03:42:39;;;;;;;46.47;22.38;;;;;;;4.62;94.49;103234.28;4972086;28;20030;-85
2022/03/26 03:45:05;;;;;;;49.90;21.80;;;;;;;4.62;93.92;103223.78;4986381;28;20030;-86
2022/03/26 03:47:31;;;;;;;49.22;23.17;;;;;;;4.63;94.16;103232.53;4967207;28;20034;-85
2022/03/26 03:49:57;;;;;;;49.00;22.08;;;;;;;4.63;94.61;103229.91;4993894;28;20076;-85
2022/03/26 03:52:22;;;;;;;48.28;22.92;;;;;;;4.64;94.36;103231.69;4976999;28;20537;-85
2022/03/26 03:54:47;;;;;;;55.22;23.27;;;;;;;4.64;93.91;103235.19;4974478;28;20044;-86
2022/03/26 03:57:13;;;;;;;52.53;22.35;;;;;;;4.65;93.97;103238.72;4958858;28;20113;-87
2022/03/26 03:59:41;;;;;;;50.95;23.10;;;;;;;4.63;94.32;103233.44;4988454;28;20041;-86
2022/03/26 04:02:09;;;;;;;53.08;23.83;;;;;;;4.62;94.00;103239.53;4989524;28;20037;-85
2022/03/26 04:04:37;;;;;;;49.80;22.52;;;;;;;4.63;94.16;103236.06;4992391;28;20043;-86
2022/03/26 04:07:03;;;;;;;46.70;23.42;;;;;;;4.61;94.19;103236.88;4973381;28;20137;-86
2022/03/26 04:09:29;;;;;;;50.03;22.63;;;;;;;4.58;94.26;103235.09;4976225;28;20034;-86
2022/03/26 04:11:54;;;;;;;52.05;23.38;;;;;;;4.54;94.00;103236.78;4972945;28;20032;-86
2022/03/26 04:14:19;;;;;;;57.30;24.38;;;;;;;4.54;94.04;103242.03;4975651;28;20129;-85
2022/03/26 04:16:45;;;;;;;52.70;24.98;;;;;;;4.50;94.05;103234.03;4968768;28;20038;-86
2022/03/26 04:19:12;;;;;;;60.47;24.92;;;;;;;4.46;95.09;103230.47;4954821;28;20389;-85
2022/03/26 04:21:38;;;;;;;54.45;24.63;;;;;;;4.48;95.11;103233.16;4988657;28;20043;-86
2022/03/26 04:24:04;;;;;;;52.65;24.20;;;;;;;4.47;94.74;103234.88;4987634;28;20088;-87
2022/03/26 04:26:29;;;;;;;53.88;24.33;;;;;;;4.43;94.17;103236.53;4947227;28;20040;-86
2022/03/26 04:28:55;;;;;;;57.75;24.73;;;;;;;4.40;94.22;103233.00;4963845;28;20090;-86
2022/03/26 04:31:20;;;;;;;56.85;25.00;;;;;;;4.39;94.50;103228.59;4974833;28;20548;-85
2022/03/26 04:33:46;;;;;;;55.80;26.55;;;;;;;4.35;94.91;103239.88;4991662;28;20077;-85
2022/03/26 04:36:12;;;;;;;62.20;26.15;;;;;;;4.31;95.85;103241.56;4991358;28;20047;-85
2022/03/26 04:38:38;;;;;;;66.35;28.08;;;;;;;4.31;96.08;103245.91;4990758;28;20053;-85
2022/03/26 04:41:04;;;;;;;68.15;28.42;;;;;;;4.31;95.98;103238.94;4990125;28;20038;-85
2022/03/26 04:43:31;;;;;;;68.68;28.83;;;;;;;4.30;96.02;103249.38;4986449;28;20406;-85
2022/03/26 04:45:56;;;;;;;65.07;27.95;;;;;;;4.31;96.43;103254.69;4991266;28;20544;-86
2022/03/26 04:48:22;;;;;;;70.47;29.52;;;;;;;4.27;96.70;103244.97;4972702;28;20122;-86
2022/03/26 04:50:47;;;;;;;71.80;31.10;;;;;;;4.28;97.41;103248.50;4991157;28;20402;-85
2022/03/26 04:53:13;;;;;;;70.63;28.60;;;;;;;4.30;97.18;103252.91;4990017;28;20038;-84
2022/03/26 04:55:39;;;;;;;71.28;30.30;;;;;;;4.31;96.16;103252.06;4973379;28;20114;-84
2022/03/26 04:58:04;;;;;;;70.18;29.50;;;;;;;4.29;96.30;103255.50;4988068;28;20046;-85
2022/03/26 05:00:29;;;;;;;69.35;31.02;;;;;;;4.25;96.58;103249.31;4978585;28;20385;-86
2022/03/26 05:02:55;;;;;;;68.32;30.25;;;;;;;4.24;96.82;103250.16;4993064;28;20026;-86
2022/03/26 05:05:20;;;;;;;66.95;30.50;;;;;;;4.22;96.73;103249.22;4975739;28;20084;-86
2022/03/26 05:07:46;;;;;;;71.15;30.35;;;;;;;4.22;97.70;103246.59;5006361;28;20034;-85
2022/03/26 05:10:12;;;;;;;81.35;33.72;;;;;;;4.25;97.80;103244.06;4966340;28;20033;-86
2022/03/26 05:12:37;;;;;;;76.10;33.22;;;;;;;4.30;98.02;103247.66;4987629;28;20402;-86
2022/03/26 05:15:03;;;;;;;78.78;31.42;;;;;;;4.34;98.41;103246.00;4995532;28;20088;-86
2022/03/26 05:17:28;;;;;;;76.13;32.33;;;;;;;4.37;97.97;103246.03;4989786;28;20045;-84
2022/03/26 05:19:54;;;;;;;76.80;32.47;;;;;;;4.37;96.73;103246.03;4975501;28;20553;-86
2022/03/26 05:22:19;;;;;;;83.03;33.92;;;;;;;4.35;96.96;103246.03;4994252;28;20034;-86
2022/03/26 05:24:45;;;;;;;79.32;33.40;;;;;;;4.35;97.24;103251.28;5010571;28;20039;-86
2022/03/26 05:27:10;;;;;;;78.85;33.33;;;;;;;4.37;96.86;103254.81;4985865;28;20500;-85
2022/03/26 05:29:38;;;;;;;77.00;32.67;;;;;;;4.38;96.25;103253.94;5002589;28;20458;-85
2022/03/26 05:32:04;;;;;;;80.80;33.38;;;;;;;4.34;95.78;103252.13;4975817;28;20054;-87
2022/03/26 05:34:32;;;;;;;78.05;32.80;;;;;;;4.31;96.06;103244.19;4987751;28;20133;-85
2022/03/26 05:36:58;;;;;;;77.00;33.10;;;;;;;4.32;95.99;103250.31;4987933;28;20447;-86
2022/03/26 05:39:23;;;;;;;75.32;33.13;;;;;;;4.34;96.19;103244.25;5000332;28;20050;-85
2022/03/26 05:41:49;;;;;;;78.45;34.53;;;;;;;4.37;96.24;103253.91;4975675;28;20470;-87
2022/03/26 05:44:14;;;;;;;85.13;33.20;;;;;;;4.38;95.98;103256.56;4974952;28;20040;-88
2022/03/26 05:46:40;;;;;;;78.68;32.83;;;;;;;4.39;96.33;103250.47;4973616;28;20065;-85
2022/03/26 05:49:05;;;;;;;80.90;33.70;;;;;;;4.38;96.16;103261.81;4970516;28;20045;-86
2022/03/26 05:51:30;;;;;;;78.07;34.28;;;;;;;4.41;95.90;103256.63;4972064;28;20041;-89
2022/03/26 05:53:56;;;;;;;79.38;35.05;;;;;;;4.42;95.73;103260.13;4980473;28;20121;-85
2022/03/26 05:56:21;;;;;;;72.20;32.10;;;;;;;4.39;95.29;103268.81;4962741;28;20529;-85
2022/03/26 05:58:50;;;;;;;77.60;33.28;;;;;;;4.38;95.47;103271.44;4983316;28;20034;-86
2022/03/26 06:01:15;;;;;;;82.47;33.50;;;;;;;4.35;96.37;103271.34;4974308;28;20418;-86
2022/03/26 06:03:41;;;;;;;83.25;35.03;;;;;;;4.33;97.21;103268.69;4970940;28;20045;-86
2022/03/26 06:06:06;;;;;;;78.10;34.90;;;;;;;4.39;97.32;103271.44;4975369;28;20425;-86
2022/03/26 06:08:31;;;;;;;82.40;35.05;;;;;;;4.48;97.88;103268.13;4973875;28;20094;-85
2022/03/26 06:10:57;;;;;;;84.60;35.35;;;;;;;4.55;98.30;103277.91;4991037;28;20026;-87
2022/03/26 06:13:22;;;;;;;80.28;33.05;;;;;;;4.67;98.28;103268.50;4970521;28;20042;-84
2022/03/26 06:15:49;;;;;;;80.38;34.97;;;;;;;4.73;97.21;103276.47;4976481;28;20026;-84
2022/03/26 06:18:15;;;;;;;79.43;33.70;;;;;;;4.78;96.39;103277.44;4986296;28;20042;-85
2022/03/26 06:20:42;;;;;;;77.00;34.65;;;;;;;4.82;96.50;103281.00;5001648;28;20085;-87
2022/03/26 06:23:07;;;;;;;75.53;33.03;;;;;;;4.83;96.13;103286.28;4976812;28;20022;-85
2022/03/26 06:25:34;;;;;;;75.80;32.38;;;;;;;4.83;95.66;103283.66;4976512;28;20035;-84
2022/03/26 06:27:59;;;;;;;76.28;31.70;;;;;;;4.86;96.36;103285.44;4992857;28;20104;-85
2022/03/26 06:30:25;;;;;;;74.65;33.10;;;;;;;4.90;96.88;103282.94;4960046;28;20501;-86
2022/03/26 06:32:52;;;;;;;82.53;34.33;;;;;;;4.97;97.23;103281.28;4992809;28;20030;-85
2022/03/26 06:35:17;;;;;;;76.95;34.05;;;;;;;5.06;97.77;103285.81;4992538;28;20425;-84
2022/03/26 06:37:43;;;;;;;85.35;35.13;;;;;;;5.14;98.28;103285.94;5003269;28;20117;-85
2022/03/26 06:40:09;;;;;;;85.55;35.67;;;;;;;5.22;98.05;103285.22;5007943;28;20445;-86
2022/03/26 06:42:34;;;;;;;85.88;35.00;;;;;;;5.34;97.57;103281.03;4992701;28;20188;-84
2022/03/26 06:45:00;;;;;;;84.82;35.97;;;;;;;5.46;97.71;103276.00;4992234;28;20470;-84
2022/03/26 06:47:26;;;;;;;85.18;35.78;;;;;;;5.60;97.82;103280.56;4993604;28;20038;-86
2022/03/26 06:49:53;;;;;;;88.25;37.72;;;;;;;5.72;97.31;103281.63;4993343;28;20129;-84
2022/03/26 06:52:19;;;;;;;82.82;35.33;;;;;;;5.79;96.94;103282.59;4994331;28;20033;-84
2022/03/26 06:54:45;;;;;;;85.20;36.53;;;;;;;5.91;96.30;103280.16;4993498;28;20121;-86
2022/03/26 06:57:10;;;;;;;80.50;36.70;;;;;;;6.00;96.47;103281.19;4992453;28;20026;-85
2022/03/26 06:59:36;;;;;;;82.47;36.60;;;;;;;6.09;96.30;103294.47;4993427;28;20397;-84
2022/03/26 07:02:01;;;;;;;81.78;36.35;;;;;;;6.19;96.23;103284.94;4940729;28;20022;-88
2022/03/26 07:04:26;;;;;;;85.78;38.95;;;;;;;6.30;96.49;103288.56;4990587;28;20045;-86
2022/03/26 07:06:52;;;;;;;89.03;39.50;;;;;;;6.43;97.04;103286.97;4992280;28;20042;-89
2022/03/26 07:09:17;;;;;;;83.72;37.35;;;;;;;6.59;95.90;103295.97;4995950;28;20118;-86
2022/03/26 07:11:43;;;;;;;88.03;37.90;;;;;;;6.73;96.29;103304.00;4977042;28;20436;-87
2022/03/26 07:14:09;;;;;;;82.93;36.97;;;;;;;6.83;95.44;103290.06;5008039;28;20109;-87
2022/03/26 07:16:34;;;;;;;88.30;36.95;;;;;;;6.96;96.03;103301.63;4959802;28;20137;-87
2022/03/26 07:18:59;;;;;;;88.13;37.85;;;;;;;7.10;96.36;103296.47;4992068;28;20034;-86
2022/03/26 07:21:25;;;;;;;84.13;36.08;;;;;;;7.26;95.62;103304.53;4991821;28;20027;-86
2022/03/26 07:23:51;;;;;;;83.15;38.00;;;;;;;7.44;94.65;103295.88;4993640;28;20026;-86
2022/03/26 07:26:16;;;;;;;85.63;36.15;;;;;;;7.59;94.05;103301.25;4943966;28;20034;-86
2022/03/26 07:28:42;;;;;;;77.00;36.10;;;;;;;7.77;93.03;103308.41;4975956;28;20041;-86
2022/03/26 07:31:08;;;;;;;82.07;36.58;;;;;;;7.95;91.40;103306.78;4975818;28;20126;-87
2022/03/26 07:33:33;;;;;;;80.35;35.63;;;;;;;8.10;90.82;103308.63;4972075;28;20031;-87
2022/03/26 07:35:59;;;;;;;80.97;36.10;;;;;;;8.20;89.71;103308.66;4985131;28;20053;-86
2022/03/26 07:38:24;;;;;;;76.53;34.60;;;;;;;8.26;88.81;103305.19;4971506;28;20038;-85
2022/03/26 07:40:49;;;;;;;80.60;35.90;;;;;;;8.35;88.29;103320.16;4988352;28;20023;-86
2022/03/26 07:43:15;;;;;;;76.00;34.05;;;;;;;8.45;87.18;103316.72;4956237;28;20474;-86
2022/03/26 07:45:40;;;;;;;72.43;32.00;;;;;;;8.64;86.42;103324.72;4988424;28;20031;-85
2022/03/26 07:48:06;;;;;;;76.40;33.35;;;;;;;8.82;84.42;103327.44;4954910;28;20082;-86
2022/03/26 07:50:31;;;;;;;68.07;33.35;;;;;;;8.94;84.35;103331.84;4985620;28;20027;-86
2022/03/26 07:52:57;;;;;;;65.35;32.28;;;;;;;9.08;81.74;103331.88;4969535;28;20038;-85
2022/03/26 07:55:22;;;;;;;60.65;30.70;;;;;;;9.18;81.37;103330.09;4997986;28;20027;-86
2022/03/26 07:57:48;;;;;;;64.55;30.10;;;;;;;9.25;80.44;103336.31;4988808;28;20038;-86
2022/03/26 08:00:13;;;;;;;70.97;31.77;;;;;;;9.31;79.90;103342.47;4988565;28;20038;-84
2022/03/26 08:02:39;;;;;;;65.80;32.00;;;;;;;9.40;80.78;103338.97;4982146;28;20039;-85
2022/03/26 08:05:05;;;;;;;64.43;30.77;;;;;;;9.49;80.46;103344.25;4988233;28;20034;-85
2022/03/26 08:07:31;;;;;;;64.55;30.35;;;;;;;9.65;79.37;103344.25;4973345;28;20030;-85
2022/03/26 08:09:56;;;;;;;56.70;29.52;;;;;;;9.74;79.31;103356.59;4987901;28;20061;-84
2022/03/26 08:12:22;;;;;;;67.60;32.30;;;;;;;9.85;78.45;103352.16;4990031;28;20482;-84
2022/03/26 08:14:48;;;;;;;65.20;30.77;;;;;;;9.98;77.33;103351.25;4988286;28;20174;-86
2022/03/26 08:17:14;;;;;;;63.45;31.10;;;;;;;10.10;76.05;103353.00;4956169;28;20018;-85
2022/03/26 08:19:39;;;;;;;70.40;31.83;;;;;;;10.17;76.94;103360.03;4973720;28;20489;-85
2022/03/26 08:22:05;;;;;;;65.93;31.58;;;;;;;10.28;75.67;103352.06;4955735;28;20041;-86
2022/03/26 08:24:30;;;;;;;68.65;33.05;;;;;;;10.39;75.69;103346.75;4971507;28;20046;-86
2022/03/26 08:26:56;;;;;;;63.40;30.60;;;;;;;10.51;75.33;103350.25;4987999;28;20643;-87
2022/03/26 08:29:21;;;;;;;57.88;29.73;;;;;;;10.58;74.99;103359.94;4979081;28;20038;-87
2022/03/26 08:31:47;;;;;;;69.75;31.42;;;;;;;10.76;75.14;103362.47;4972990;28;20610;-86
2022/03/26 08:34:12;;;;;;;65.15;30.35;;;;;;;10.93;73.59;103361.50;4971212;28;20474;-86
2022/03/26 08:36:38;;;;;;;66.10;31.98;;;;;;;11.11;73.11;103356.09;4980301;28;20141;-88
2022/03/26 08:39:04;;;;;;;62.42;30.70;;;;;;;11.23;73.05;103354.28;4989370;28;20502;-86
2022/03/26 08:41:30;;;;;;;61.05;29.55;;;;;;;11.41;72.48;103359.41;4985509;28;20113;-86
2022/03/26 08:43:56;;;;;;;58.35;28.73;;;;;;;11.47;71.39;103355.81;5025505;28;20033;-86
2022/03/26 08:46:22;;;;;;;62.13;29.17;;;;;;;11.58;71.36;103361.91;4975746;28;20100;-86
2022/03/26 08:48:48;;;;;;;63.22;30.70;;;;;;;11.67;71.41;103360.97;5006278;28;20018;-86
2022/03/26 08:51:14;;;;;;;63.20;30.20;;;;;;;11.87;70.14;103359.91;4996486;28;20034;-87
2022/03/26 08:53:40;;;;;;;61.22;29.85;;;;;;;11.80;70.09;103364.38;5001903;28;20054;-87
2022/03/26 08:56:06;;;;;;;60.63;29.15;;;;;;;11.88;70.41;103359.00;4997996;28;20117;-86
2022/03/26 08:58:32;;;;;;;64.53;30.08;;;;;;;12.10;69.47;103359.72;4975775;28;20089;-86
2022/03/26 09:00:58;;;;;;;59.75;27.02;;;;;;;12.25;67.74;103353.31;4999165;28;20452;-87
2022/03/26 09:03:24;;;;;;;57.42;28.73;;;;;;;12.33;68.10;103345.25;4978720;28;20081;-87
2022/03/26 09:05:51;;;;;;;57.30;26.83;;;;;;;12.43;67.68;103353.13;4977498;28;20117;-87
2022/03/26 09:08:17;;;;;;;52.00;25.35;;;;;;;12.62;67.68;103355.53;4993938;28;20022;-87
2022/03/26 09:10:43;;;;;;;43.53;22.00;;;;;;;12.92;65.32;103348.03;4977698;28;20038;-87
2022/03/26 09:13:09;;;;;;;41.58;20.73;;;;;;;13.49;62.44;103362.25;4993443;28;20035;-87
2022/03/26 09:15:34;;;;;;;37.40;18.08;;;;;;;14.11;57.61;103356.72;4962849;28;20034;-88
2022/03/26 09:18:00;;;;;;;32.28;16.23;;;;;;;15.55;54.33;103357.06;4988402;28;20058;-89
2022/03/26 09:20:26;;;;;;;30.65;16.73;;;;;;;17.30;46.38;103364.53;4990090;28;20390;-87
2022/03/26 09:22:52;;;;;;;34.17;18.45;;;;;;;17.88;43.27;103358.09;4990538;28;20062;-86
2022/03/26 09:25:19;;;;;;;32.15;17.40;;;;;;;18.22;42.69;103370.31;4963918;28;20117;-88
2022/03/26 09:27:44;;;;;;;46.80;26.20;;;;;;;18.81;41.45;103367.16;4986681;28;20038;-89
2022/03/26 09:30:10;;;;;;;40.30;22.45;;;;;;;19.10;40.92;103367.81;5023147;28;20033;-88
2022/03/26 09:32:36;;;;;;;42.47;25.08;;;;;;;20.03;39.38;103366.63;4980264;28;20029;-87
2022/03/26 09:35:02;;;;;;;45.03;27.17;;;;;;;20.32;38.45;103379.66;4994488;28;20026;-86
2022/03/26 09:37:27;;;;;;;37.63;23.00;;;;;;;20.61;36.70;103359.47;5007744;28;20038;-86
2022/03/26 09:39:54;;;;;;;41.25;25.75;;;;;;;20.26;37.51;103368.25;4978679;28;20030;-87
2022/03/26 09:42:22;;;;;;;40.45;25.30;;;;;;;19.99;39.42;103370.38;4992468;28;20034;-88
2022/03/26 09:44:50;;;;;;;41.78;26.25;;;;;;;19.64;39.00;103362.91;4989098;28;20038;-87
2022/03/26 09:47:16;;;;;;;40.17;23.05;;;;;;;19.23;39.38;103367.31;4986916;28;20053;-87
2022/03/26 09:49:42;;;;;;;40.55;23.00;;;;;;;20.00;39.09;103366.75;4994502;28;20526;-88
2022/03/26 09:52:08;;;;;;;33.35;20.17;;;;;;;20.58;37.79;103363.19;4965061;28;20034;-87
2022/03/26 09:54:36;;;;;;;32.90;19.63;;;;;;;21.43;35.00;103364.47;4979635;28;20056;-87
2022/03/26 09:57:03;;;;;;;34.78;20.30;;;;;;;20.83;36.44;103371.94;4994972;28;20034;-87
2022/03/26 09:59:28;;;;;;;33.88;22.65;;;;;;;20.42;38.56;103367.53;4985652;28;20034;-86
2022/03/26 10:01:54;;;;;;;39.10;23.73;;;;;;;20.60;38.21;103371.19;4976832;28;20022;-88
2022/03/26 10:04:22;;;;;;;33.85;20.40;;;;;;;19.39;39.44;103371.13;4976617;28;20397;-88
2022/03/26 10:06:51;;;;;;;34.33;20.80;;;;;;;19.73;38.99;103380.44;4993774;28;20038;-86
2022/03/26 10:09:26;;;;;;;35.42;21.38;;;;;;;19.65;40.13;103370.03;4990351;28;20433;-88
2022/03/26 10:12:09;;;;;;;34.60;21.90;;;;;;;20.24;38.63;103366.56;4991866;28;20138;-85
2022/03/26 10:14:52;;;;;;;31.20;20.27;;;;;;;20.58;36.98;103365.00;4991171;28;20027;-89
2022/03/26 10:17:23;;;;;;;30.50;18.90;;;;;;;19.69;38.35;103365.38;4975179;28;20027;-88
2022/03/26 10:19:50;;;;;;;32.03;18.35;;;;;;;19.67;37.97;103359.19;4984020;28;20035;-88
2022/03/26 10:22:29;;;;;;;32.38;20.33;;;;;;;19.48;38.89;103364.50;4987880;28;20040;-89
2022/03/26 10:24:57;;;;;;;29.65;18.48;;;;;;;20.27;37.74;103348.47;5016011;28;20045;-89
2022/03/26 10:27:23;;;;;;;32.03;18.83;;;;;;;21.04;35.92;103357.44;4982101;28;20389;-88
2022/03/26 10:29:51;;;;;;;33.22;17.92;;;;;;;21.20;33.59;103365.63;4976843;28;20474;-90
2022/03/26 10:32:45;;;;;;;32.83;17.52;;;;;;;21.79;33.59;103351.00;4968720;28;20073;-88
2022/03/26 10:35:15;;;;;;;36.88;18.10;;;;;;;21.73;32.74;103363.84;4993828;28;20042;-89
2022/03/26 10:37:47;;;;;;;35.50;20.25;;;;;;;22.29;32.61;103350.09;4995764;28;20121;-89
2022/03/26 10:40:17;;;;;;;35.15;21.42;;;;;;;22.27;32.37;103352.00;4992226;28;20022;-89
2022/03/26 10:42:43;;;;;;;39.95;23.08;;;;;;;22.57;32.51;103346.75;4990381;28;20042;-87
2022/03/26 10:45:14;;;;;;;38.33;23.40;;;;;;;22.75;32.19;103347.53;4966746;28;20122;-88
2022/03/26 10:47:39;;;;;;;44.90;25.42;;;;;;;22.37;32.55;103347.88;4980105;28;20046;-89
2022/03/26 10:50:05;;;;;;;42.42;25.60;;;;;;;21.95;32.88;103349.22;5009150;28;20034;-88
2022/03/26 10:52:31;;;;;;;51.63;28.63;;;;;;;21.69;32.65;103337.13;4982654;28;20040;-89
2022/03/26 10:54:57;;;;;;;50.03;26.45;;;;;;;22.36;31.09;103342.53;4982827;28;20136;-89
2022/03/26 10:57:24;;;;;;;45.50;26.70;;;;;;;22.92;30.58;103341.16;4996147;28;20053;-88
2022/03/26 10:59:51;;;;;;;50.42;27.20;;;;;;;21.96;30.41;103344.69;4993654;28;20045;-90
2022/03/26 11:02:16;;;;;;;51.90;26.08;;;;;;;21.75;31.08;103343.09;4976470;28;20026;-89
2022/03/26 11:04:42;;;;;;;44.80;24.77;;;;;;;21.87;32.27;103338.84;4978578;28;20038;-90
2022/03/26 11:07:11;;;;;;;46.88;26.48;;;;;;;22.61;31.02;103339.38;4981407;28;20030;-91
2022/03/26 11:09:37;;;;;;;49.20;27.35;;;;;;;22.39;31.10;103334.28;5000625;28;20037;-89